Time;durP1;ratioP1;P1;durP2;ratioP2;P2;SDS_P1;SDS_P2;PMS_P1;PMS_P2;Temp;Humidity;BMP_temperature;BMP_pressure;BME280_temperature;BME280_humidity;BME280_pressure;Samples;Min_cycle;Max_cycle;Signal;HPM_P1;HPM_P2
2021/05/10 00:01:17;;;;;;;1.77;1.50;;;13.00;71.70;;;;;;5018000;28;20037;-77
2021/05/10 00:03:43;;;;;;;1.90;1.80;;;12.90;72.20;;;;;;5014675;28;20396;-75
2021/05/10 00:06:09;;;;;;;1.83;1.73;;;12.90;72.60;;;;;;5017627;28;20057;-75
2021/05/10 00:08:34;;;;;;;2.15;1.95;;;12.90;72.60;;;;;;5014665;28;20050;-76
2021/05/10 00:11:00;;;;;;;2.47;1.90;;;12.80;73.10;;;;;;5017039;28;20059;-77
2021/05/10 00:13:27;;;;;;;2.30;1.60;;;12.70;73.30;;;;;;5016061;28;20636;-76
2021/05/10 00:15:54;;;;;;;1.70;1.60;;;12.70;69.20;;;;;;5020274;28;20049;-76
2021/05/10 00:18:19;;;;;;;2.08;1.77;;;12.50;70.60;;;;;;5015611;28;20116;-76
2021/05/10 00:20:46;;;;;;;2.00;1.80;;;12.40;71.60;;;;;;5019763;28;20131;-76
2021/05/10 00:23:14;;;;;;;2.67;1.60;;;12.40;70.70;;;;;;5015288;28;20017;-78
2021/05/10 00:25:40;;;;;;;3.50;1.70;;;12.40;71.90;;;;;;5019289;28;20025;-75
2021/05/10 00:28:06;;;;;;;1.92;1.83;;;12.40;73.10;;;;;;5018605;28;20037;-78
2021/05/10 00:30:33;;;;;;;2.22;1.80;;;12.30;73.60;;;;;;5018516;28;20065;-76
2021/05/10 00:32:59;;;;;;;2.05;1.85;;;12.20;74.00;;;;;;5017054;28;21084;-76
2021/05/10 00:35:25;;;;;;;2.83;1.92;;;12.30;73.80;;;;;;5019143;28;20055;-76
2021/05/10 00:37:51;;;;;;;2.97;1.40;;;12.30;71.40;;;;;;5014968;28;20116;-76
2021/05/10 00:40:23;;;;;;;5.15;1.58;;;12.20;70.40;;;;;;5020804;28;20037;-76
2021/05/10 00:42:49;;;;;;;2.47;1.65;;;12.20;70.60;;;;;;5035470;28;20030;-76
2021/05/10 00:45:15;;;;;;;2.30;1.80;;;12.20;71.30;;;;;;5023601;28;20545;-76
2021/05/10 00:47:41;;;;;;;1.75;1.60;;;12.20;71.50;;;;;;5018486;28;20026;-77
2021/05/10 00:50:09;;;;;;;2.45;1.98;;;12.10;73.20;;;;;;5023751;28;20038;-75
2021/05/10 00:52:35;;;;;;;2.38;1.65;;;12.10;73.10;;;;;;5020696;28;20046;-76
2021/05/10 00:55:00;;;;;;;2.28;1.65;;;12.20;73.00;;;;;;5026888;28;20048;-77
2021/05/10 00:57:31;;;;;;;2.03;1.75;;;12.10;74.10;;;;;;5020363;28;20028;-76
2021/05/10 00:59:57;;;;;;;3.17;1.60;;;12.10;73.60;;;;;;5028108;28;20573;-77
2021/05/10 01:02:24;;;;;;;1.95;1.60;;;12.20;73.10;;;;;;5019620;28;20125;-77
2021/05/10 01:04:49;;;;;;;2.20;1.40;;;12.20;72.30;;;;;;5013408;28;20021;-77
2021/05/10 01:07:15;;;;;;;2.05;1.50;;;12.20;71.30;;;;;;5019330;28;20046;-78
2021/05/10 01:09:41;;;;;;;1.67;1.55;;;12.10;71.20;;;;;;5021732;28;20112;-76
2021/05/10 01:12:07;;;;;;;2.55;1.67;;;12.10;71.30;;;;;;5019195;28;20131;-77
2021/05/10 01:14:34;;;;;;;1.98;1.77;;;12.00;71.20;;;;;;5025790;28;20102;-77
2021/05/10 01:17:01;;;;;;;1.50;1.40;;;11.90;71.50;;;;;;5020103;28;20400;-77
2021/05/10 01:19:28;;;;;;;1.50;1.40;;;11.70;71.50;;;;;;5018886;28;20036;-77
2021/05/10 01:21:57;;;;;;;1.48;1.38;;;11.70;71.00;;;;;;5017448;28;20036;-77
2021/05/10 01:24:23;;;;;;;4.38;1.48;;;11.70;71.40;;;;;;5018956;28;20483;-77
2021/05/10 01:26:49;;;;;;;1.77;1.60;;;11.60;72.40;;;;;;5019699;28;20029;-77
2021/05/10 01:29:15;;;;;;;2.88;1.80;;;11.60;73.40;;;;;;5009787;28;20032;-77
2021/05/10 01:31:40;;;;;;;4.30;1.80;;;11.60;75.00;;;;;;5018084;28;20621;-77
2021/05/10 01:34:06;;;;;;;1.60;1.50;;;11.50;75.00;;;;;;5017304;28;20108;-77
2021/05/10 01:36:32;;;;;;;1.73;1.63;;;11.60;74.00;;;;;;5024431;28;20055;-77
2021/05/10 01:38:58;;;;;;;4.85;2.00;;;11.60;75.90;;;;;;5016509;28;20071;-77
2021/05/10 01:41:23;;;;;;;1.85;1.73;;;11.40;76.20;;;;;;5019950;28;20061;-77
2021/05/10 01:43:49;;;;;;;5.32;1.60;;;11.30;77.70;;;;;;5023468;28;20022;-77
2021/05/10 01:46:14;;;;;;;1.90;1.80;;;11.40;76.90;;;;;;5019108;28;20040;-77
2021/05/10 01:48:40;;;;;;;2.70;1.73;;;11.40;76.70;;;;;;5020889;28;20030;-76
2021/05/10 01:51:05;;;;;;;2.17;1.65;;;11.40;76.80;;;;;;5020037;28;20029;-77
2021/05/10 01:53:32;;;;;;;4.65;2.00;;;11.50;75.80;;;;;;5012614;28;20529;-77
2021/05/10 01:55:58;;;;;;;2.72;1.65;;;11.60;75.40;;;;;;5023011;28;20028;-75
2021/05/10 01:58:24;;;;;;;3.40;1.63;;;11.60;75.70;;;;;;5013810;28;20029;-77
2021/05/10 02:00:50;;;;;;;3.33;1.80;;;11.60;76.60;;;;;;5021607;28;20045;-76
2021/05/10 02:03:20;;;;;;;4.53;1.80;;;11.60;75.00;;;;;;5021754;28;20120;-77
2021/05/10 02:05:48;;;;;;;1.65;1.52;;;11.50;73.20;;;;;;5017791;28;20125;-76
2021/05/10 02:08:14;;;;;;;2.58;1.98;;;11.50;72.60;;;;;;5016379;28;20030;-77
2021/05/10 02:10:48;;;;;;;2.08;1.67;;;11.30;74.70;;;;;;5013125;28;20057;-77
2021/05/10 02:13:15;;;;;;;1.83;1.70;;;11.30;74.60;;;;;;5014276;28;20030;-76
2021/05/10 02:15:43;;;;;;;2.42;1.65;;;11.10;75.60;;;;;;5022853;28;20113;-77
2021/05/10 02:18:10;;;;;;;;;;;11.20;75.00;;;;;;5022443;28;20436;-76
2021/05/10 02:20:36;;;;;;;2.15;1.88;;;11.20;75.20;;;;;;5018016;28;20391;-76
2021/05/10 02:23:10;;;;;;;2.28;1.83;;;11.20;75.60;;;;;;5020199;28;20528;-76
2021/05/10 02:25:41;;;;;;;1.77;1.67;;;11.20;74.70;;;;;;5022097;28;20029;-78
2021/05/10 02:28:08;;;;;;;2.10;1.90;;;11.10;75.20;;;;;;5021410;28;20025;-78
2021/05/10 02:30:35;;;;;;;2.10;1.98;;;11.20;75.60;;;;;;5019279;28;20038;-77
2021/05/10 02:33:04;;;;;;;1.90;1.80;;;11.20;76.50;;;;;;5016746;28;20115;-77
2021/05/10 02:35:29;;;;;;;;;;;11.30;75.60;;;;;;5017718;28;20040;-77
2021/05/10 02:37:56;;;;;;;1.90;1.80;;;11.30;75.80;;;;;;5013339;28;19916;-78
2021/05/10 02:40:22;;;;;;;3.92;1.67;;;11.10;77.30;;;;;;5022343;28;20059;-77
2021/05/10 02:42:48;;;;;;;2.13;1.60;;;11.10;77.00;;;;;;5014237;28;20476;-76
2021/05/10 02:45:15;;;;;;;4.35;1.85;;;11.20;75.50;;;;;;5023987;28;20024;-78
2021/05/10 02:47:41;;;;;;;1.80;1.70;;;11.20;74.60;;;;;;5014261;28;20542;-76
2021/05/10 02:50:11;;;;;;;1.83;1.73;;;11.10;74.10;;;;;;5019809;28;20030;-78
2021/05/10 02:52:37;;;;;;;4.00;1.80;;;11.10;74.50;;;;;;5019212;28;20484;-77
2021/05/10 02:55:07;;;;;;;2.20;2.00;;;11.00;76.80;;;;;;5014621;28;20068;-77
2021/05/10 02:57:36;;;;;;;1.80;1.70;;;11.00;76.10;;;;;;5018668;28;20017;-76
2021/05/10 03:00:05;;;;;;;2.25;2.05;;;11.00;75.50;;;;;;5017365;28;20030;-76
2021/05/10 03:02:31;;;;;;;1.88;1.77;;;11.00;76.30;;;;;;5022633;28;20049;-77
2021/05/10 03:04:56;;;;;;;2.03;1.85;;;11.00;76.20;;;;;;5017721;28;20759;-76
2021/05/10 03:07:22;;;;;;;2.53;2.10;;;11.00;76.80;;;;;;5019390;28;20551;-76
2021/05/10 03:09:48;;;;;;;3.55;2.40;;;10.90;78.90;;;;;;5015787;28;20037;-75
2021/05/10 03:12:13;;;;;;;2.20;2.00;;;10.70;79.90;;;;;;5019447;28;20533;-76
2021/05/10 03:14:39;;;;;;;3.17;2.10;;;10.60;80.90;;;;;;5019606;28;20029;-76
2021/05/10 03:17:04;;;;;;;3.42;2.00;;;10.60;79.70;;;;;;5012941;28;20915;-76
2021/05/10 03:19:30;;;;;;;2.10;1.80;;;10.60;80.10;;;;;;5020386;28;20709;-77
2021/05/10 03:21:56;;;;;;;4.32;2.25;;;10.70;77.70;;;;;;5021083;28;20025;-76
2021/05/10 03:24:22;;;;;;;3.30;3.00;;;10.70;77.10;;;;;;5019789;28;20060;-77
2021/05/10 03:26:47;;;;;;;2.00;1.85;;;10.80;76.40;;;;;;5017721;28;20318;-78
2021/05/10 03:29:13;;;;;;;2.40;2.05;;;10.70;76.20;;;;;;5012447;28;20076;-77
2021/05/10 03:31:39;;;;;;;2.70;1.92;;;10.70;77.00;;;;;;5021128;28;20080;-76
2021/05/10 03:34:05;;;;;;;2.22;1.90;;;10.40;79.50;;;;;;5019383;28;20039;-76
2021/05/10 03:36:31;;;;;;;2.05;1.95;;;10.40;79.10;;;;;;5018033;28;20715;-76
2021/05/10 03:38:56;;;;;;;2.55;2.13;;;10.40;78.60;;;;;;5015884;28;20025;-77
2021/05/10 03:41:22;;;;;;;3.25;2.00;;;10.50;78.30;;;;;;5017726;28;20565;-77
2021/05/10 03:43:49;;;;;;;3.10;2.25;;;10.50;79.20;;;;;;5017098;28;20702;-77
2021/05/10 03:46:15;;;;;;;2.78;1.98;;;10.50;80.00;;;;;;5016830;28;20021;-77
2021/05/10 03:48:41;;;;;;;4.10;2.40;;;10.50;80.50;;;;;;5018577;28;20056;-76
2021/05/10 03:51:06;;;;;;;2.47;2.00;;;10.60;79.40;;;;;;5021486;28;20077;-76
2021/05/10 03:53:32;;;;;;;9.38;2.53;;;10.50;81.20;;;;;;5019126;28;20053;-77
2021/05/10 03:55:58;;;;;;;3.63;2.40;;;10.60;80.10;;;;;;5018752;28;20029;-77
2021/05/10 03:58:24;;;;;;;5.05;2.15;;;10.60;79.80;;;;;;5014437;28;20033;-77
2021/05/10 04:00:50;;;;;;;2.17;1.98;;;10.70;78.80;;;;;;5014893;28;20048;-77
2021/05/10 04:03:16;;;;;;;3.28;1.88;;;10.70;78.00;;;;;;5017142;28;20489;-77
2021/05/10 04:06:01;;;;;;;2.00;1.80;;;10.60;75.70;;;;;;5019543;28;20100;-76
2021/05/10 04:11:24;;;;;;;4.90;2.20;;;10.40;80.80;;;;;;5017446;28;20498;-77
2021/05/10 04:13:55;;;;;;;5.93;2.03;;;10.40;81.20;;;;;;5016427;28;20030;-77
2021/05/10 04:16:21;;;;;;;3.78;2.40;;;10.50;81.00;;;;;;5013232;28;20488;-77
2021/05/10 04:18:47;;;;;;;3.85;2.10;;;10.50;81.10;;;;;;5016984;28;20514;-78
2021/05/10 04:21:13;;;;;;;3.88;2.33;;;10.50;81.40;;;;;;5018981;28;20022;-78
2021/05/10 04:23:39;;;;;;;6.30;2.42;;;10.40;81.30;;;;;;5016301;28;20017;-77
2021/05/10 04:26:04;;;;;;;3.67;2.47;;;10.40;81.00;;;;;;5015289;28;20032;-77
2021/05/10 04:28:31;;;;;;;2.95;2.33;;;10.50;80.60;;;;;;5014502;28;21412;-78
2021/05/10 04:30:57;;;;;;;4.90;2.65;;;10.50;81.10;;;;;;5012487;28;20104;-77
2021/05/10 04:33:30;;;;;;;2.42;2.13;;;10.50;80.00;;;;;;5033772;28;20535;-76
2021/05/10 04:35:56;;;;;;;4.38;2.20;;;10.50;80.00;;;;;;5016234;28;20029;-77
2021/05/10 04:38:23;;;;;;;2.42;2.22;;;10.40;79.30;;;;;;5016923;28;20101;-78
2021/05/10 04:40:48;;;;;;;3.53;1.90;;;10.30;80.00;;;;;;5010019;28;20017;-76
2021/05/10 04:43:15;;;;;;;3.15;2.47;;;10.40;80.20;;;;;;5013892;28;20511;-77
2021/05/10 04:45:40;;;;;;;3.67;2.30;;;10.40;80.70;;;;;;5014206;28;20026;-78
2021/05/10 04:48:06;;;;;;;3.45;2.35;;;10.40;80.70;;;;;;5016477;28;20034;-77
2021/05/10 04:50:32;;;;;;;2.72;2.00;;;10.40;80.70;;;;;;5014416;28;20128;-76
2021/05/10 04:52:58;;;;;;;1.98;1.88;;;10.40;80.90;;;;;;5021716;28;20033;-77
2021/05/10 04:55:24;;;;;;;4.43;2.50;;;10.50;80.60;;;;;;5013254;28;20040;-78
2021/05/10 04:57:49;;;;;;;4.43;2.20;;;10.50;82.00;;;;;;5021589;28;20109;-77
2021/05/10 05:00:16;;;;;;;2.50;2.20;;;10.50;81.40;;;;;;5014043;28;20021;-77
2021/05/10 05:02:42;;;;;;;2.30;2.10;;;10.50;81.50;;;;;;5020316;28;20044;-78
2021/05/10 05:05:09;;;;;;;2.80;2.10;;;10.60;81.20;;;;;;5016385;28;20121;-76
2021/05/10 05:07:35;;;;;;;3.05;2.35;;;10.70;81.30;;;;;;5016806;28;20609;-77
2021/05/10 05:10:01;;;;;;;3.22;2.25;;;10.80;81.40;;;;;;5013503;28;20032;-76
2021/05/10 05:12:27;;;;;;;6.60;2.50;;;10.90;80.40;;;;;;5013463;28;20033;-77
2021/05/10 05:14:52;;;;;;;4.55;2.45;;;11.00;81.10;;;;;;5010590;28;20128;-77
2021/05/10 05:17:18;;;;;;;2.92;2.60;;;11.10;83.60;;;;;;5020754;28;20337;-76
2021/05/10 05:19:43;;;;;;;2.88;1.92;;;11.20;83.40;;;;;;5017603;28;20048;-76
2021/05/10 05:22:09;;;;;;;1.90;1.80;;;11.40;81.60;;;;;;5014736;28;20044;-76
2021/05/10 05:24:35;;;;;;;2.40;2.13;;;11.50;81.10;;;;;;5018909;28;20025;-77
2021/05/10 05:27:01;;;;;;;2.17;2.00;;;11.60;81.00;;;;;;5013243;28;20447;-76
2021/05/10 05:29:27;;;;;;;2.35;2.15;;;11.80;79.90;;;;;;5015915;28;20038;-77
2021/05/10 05:31:56;;;;;;;3.60;2.33;;;11.90;79.70;;;;;;5011553;28;20396;-76
2021/05/10 05:34:21;;;;;;;4.00;2.38;;;11.90;79.90;;;;;;5009775;28;21954;-76
2021/05/10 05:36:47;;;;;;;3.75;2.38;;;12.00;79.60;;;;;;5012688;28;20035;-76
2021/05/10 05:39:13;;;;;;;3.10;2.13;;;12.10;80.10;;;;;;5013901;28;20395;-76
2021/05/10 05:41:38;;;;;;;3.78;2.40;;;12.20;81.40;;;;;;5016073;28;20048;-76
2021/05/10 05:44:05;;;;;;;2.25;2.03;;;12.30;81.10;;;;;;5024293;28;20523;-76
2021/05/10 05:46:37;;;;;;;5.20;2.50;;;12.40;80.80;;;;;;5008508;28;20171;-77
2021/05/10 05:49:03;;;;;;;3.50;2.35;;;12.50;80.90;;;;;;5011314;28;20069;-76
2021/05/10 05:51:28;;;;;;;4.07;2.45;;;12.70;79.60;;;;;;5014112;28;20026;-76
2021/05/10 05:53:55;;;;;;;2.40;2.20;;;12.90;81.00;;;;;;5013790;28;20025;-77
2021/05/10 05:56:22;;;;;;;4.30;2.40;;;13.10;81.30;;;;;;5021051;28;20033;-76
2021/05/10 05:58:50;;;;;;;3.60;2.53;;;13.30;81.10;;;;;;5015928;28;20129;-76
2021/05/10 06:01:16;;;;;;;2.67;2.40;;;13.50;78.90;;;;;;5019082;28;20140;-76
2021/05/10 06:03:42;;;;;;;2.33;2.10;;;13.60;79.90;;;;;;5023189;28;20221;-77
2021/05/10 06:06:10;;;;;;;3.85;2.60;;;13.70;79.10;;;;;;5006957;28;22073;-75
2021/05/10 06:08:35;;;;;;;3.13;2.70;;;13.80;79.80;;;;;;5004273;28;20086;-76
2021/05/10 06:11:03;;;;;;;8.07;2.85;;;13.90;78.80;;;;;;5015786;28;20041;-76
2021/05/10 06:13:28;;;;;;;2.20;2.00;;;14.00;78.30;;;;;;5011462;28;20018;-78
2021/05/10 06:15:54;;;;;;;3.58;2.30;;;14.10;77.30;;;;;;5015547;28;22998;-76
2021/05/10 06:18:20;;;;;;;5.22;2.67;;;14.20;75.50;;;;;;5022640;28;20029;-78
2021/05/10 06:20:45;;;;;;;3.30;1.90;;;14.30;74.30;;;;;;5021060;28;20403;-77
2021/05/10 06:23:11;;;;;;;2.80;2.10;;;14.40;73.80;;;;;;5022119;28;20033;-77
2021/05/10 06:25:37;;;;;;;4.55;2.20;;;14.60;73.80;;;;;;5023999;28;20025;-76
2021/05/10 06:28:02;;;;;;;3.00;1.95;;;14.80;74.00;;;;;;5017218;28;20041;-76
2021/05/10 06:30:28;;;;;;;1.92;1.83;;;14.80;72.50;;;;;;5023383;28;20029;-77
2021/05/10 06:32:54;;;;;;;2.60;1.85;;;15.00;71.50;;;;;;5024356;28;20479;-76
2021/05/10 06:35:20;;;;;;;3.25;2.22;;;15.10;72.10;;;;;;5018179;28;20034;-76
2021/05/10 06:37:46;;;;;;;2.85;1.80;;;15.30;72.30;;;;;;5013127;28;20030;-76
2021/05/10 06:40:12;;;;;;;2.53;2.20;;;15.40;72.50;;;;;;5007331;28;20045;-76
2021/05/10 06:42:38;;;;;;;2.60;2.03;;;15.50;72.30;;;;;;5020498;28;20041;-77
2021/05/10 06:45:07;;;;;;;3.15;2.22;;;15.60;72.50;;;;;;5021938;28;20181;-77
2021/05/10 06:47:41;;;;;;;3.72;2.00;;;15.70;72.30;;;;;;5020624;28;20041;-76
2021/05/10 06:50:07;;;;;;;2.33;2.10;;;15.80;72.10;;;;;;5011906;28;20032;-76
2021/05/10 06:52:34;;;;;;;2.53;2.33;;;15.90;72.20;;;;;;5019528;28;20029;-77
2021/05/10 06:55:00;;;;;;;2.20;1.70;;;16.10;71.80;;;;;;5021202;28;20038;-77
2021/05/10 06:57:26;;;;;;;4.50;1.98;;;16.20;72.00;;;;;;5021511;28;20052;-76
2021/05/10 06:59:51;;;;;;;2.78;2.00;;;16.30;72.00;;;;;;5016613;28;20084;-75
2021/05/10 07:02:19;;;;;;;3.33;2.40;;;16.30;72.20;;;;;;5023195;28;20072;-77
2021/05/10 07:04:45;;;;;;;3.90;2.45;;;16.30;72.10;;;;;;5014610;28;20025;-78
2021/05/10 07:07:10;;;;;;;3.58;2.22;;;16.40;71.60;;;;;;5013586;28;20439;-77
2021/05/10 07:09:36;;;;;;;2.95;2.30;;;16.50;69.70;;;;;;5022123;28;20033;-77
2021/05/10 07:12:02;;;;;;;2.97;2.05;;;16.70;68.10;;;;;;5024011;28;20492;-78
2021/05/10 07:14:27;;;;;;;6.65;2.22;;;16.90;69.60;;;;;;5017712;28;20021;-77
2021/05/10 07:16:53;;;;;;;3.15;2.15;;;17.10;70.30;;;;;;5019244;28;20061;-77
2021/05/10 07:19:19;;;;;;;5.30;2.03;;;17.30;69.10;;;;;;5016907;28;20536;-76
2021/05/10 07:21:45;;;;;;;2.30;2.10;;;17.50;71.30;;;;;;5017355;28;20021;-77
2021/05/10 07:24:11;;;;;;;3.95;1.80;;;17.70;70.10;;;;;;5019590;28;20091;-77
2021/05/10 07:26:36;;;;;;;2.47;1.88;;;17.80;68.80;;;;;;5017366;28;20551;-77
2021/05/10 07:29:02;;;;;;;6.82;1.95;;;18.00;69.50;;;;;;5012503;28;20053;-76
2021/05/10 07:31:28;;;;;;;2.63;1.70;;;18.20;68.00;;;;;;5016842;28;20096;-76
2021/05/10 07:33:54;;;;;;;2.15;1.80;;;18.30;68.20;;;;;;5014787;28;20029;-76
2021/05/10 07:36:19;;;;;;;2.25;1.92;;;18.50;68.00;;;;;;5012394;28;20712;-77
2021/05/10 07:38:45;;;;;;;2.53;1.90;;;18.70;68.40;;;;;;5015329;28;20044;-77
2021/05/10 07:41:11;;;;;;;3.65;1.90;;;18.80;68.20;;;;;;5013195;28;20026;-77
2021/05/10 07:43:36;;;;;;;2.42;1.67;;;19.10;67.50;;;;;;5018600;28;20056;-77
2021/05/10 07:46:02;;;;;;;3.47;1.67;;;19.40;67.10;;;;;;5020034;28;20030;-77
2021/05/10 07:48:28;;;;;;;2.55;1.65;;;19.70;62.10;;;;;;5018682;28;20034;-78
2021/05/10 07:50:53;;;;;;;3.40;1.83;;;19.70;62.10;;;;;;5018428;28;20026;-77
2021/05/10 07:53:19;;;;;;;1.67;1.33;;;19.70;57.90;;;;;;5018497;28;20181;-77
2021/05/10 07:55:46;;;;;;;2.47;1.50;;;19.80;60.80;;;;;;5018628;28;20025;-77
2021/05/10 07:58:12;;;;;;;1.92;1.23;;;20.00;56.70;;;;;;5017436;28;20121;-77
2021/05/10 08:00:40;;;;;;;2.03;1.25;;;20.10;59.20;;;;;;5010297;28;20767;-79
2021/05/10 08:03:14;;;;;;;1.27;1.10;;;20.20;53.80;;;;;;5019060;28;20439;-77
2021/05/10 08:05:41;;;;;;;1.48;1.20;;;20.30;54.20;;;;;;5013067;28;20032;-78
2021/05/10 08:08:07;;;;;;;1.77;1.10;;;20.50;52.90;;;;;;5019850;28;20026;-77
2021/05/10 08:10:33;;;;;;;2.40;1.30;;;20.70;52.90;;;;;;5007040;28;20035;-77
2021/05/10 08:12:59;;;;;;;4.63;1.48;;;20.80;55.00;;;;;;5016078;28;20030;-78
2021/05/10 08:15:25;;;;;;;1.65;1.30;;;20.90;51.30;;;;;;5023021;28;20037;-78
2021/05/10 08:17:51;;;;;;;2.10;1.30;;;21.00;51.60;;;;;;5016350;28;20510;-77
2021/05/10 08:20:17;;;;;;;1.35;1.25;;;21.10;53.30;;;;;;5020745;28;20938;-77
2021/05/10 08:22:43;;;;;;;2.20;1.33;;;21.10;53.30;;;;;;5022047;28;20021;-78
2021/05/10 08:25:12;;;;;;;2.47;1.20;;;21.00;51.90;;;;;;5024431;28;20069;-77
2021/05/10 08:27:41;;;;;;;1.25;1.15;;;21.00;51.10;;;;;;5019774;28;20033;-77
2021/05/10 08:30:09;;;;;;;4.55;1.50;;;21.00;51.40;;;;;;5012982;28;20191;-79
2021/05/10 08:32:35;;;;;;;1.50;1.30;;;21.00;55.60;;;;;;5014723;28;20438;-77
2021/05/10 08:35:01;;;;;;;1.73;1.42;;;20.90;53.80;;;;;;5018637;28;20086;-77
2021/05/10 08:37:28;;;;;;;1.55;1.45;;;21.20;51.30;;;;;;5018370;28;20048;-77
2021/05/10 08:39:55;;;;;;;1.55;1.17;;;21.40;51.50;;;;;;5019170;28;20025;-78
2021/05/10 08:42:21;;;;;;;2.65;1.20;;;21.60;49.20;;;;;;5016122;28;20040;-77
2021/05/10 08:44:46;;;;;;;1.60;1.50;;;21.70;46.70;;;;;;5017381;28;20029;-77
2021/05/10 08:47:12;;;;;;;2.63;1.40;;;21.90;45.40;;;;;;5017181;28;20076;-78
2021/05/10 08:49:38;;;;;;;2.80;1.15;;;22.00;43.20;;;;;;5017667;28;20033;-77
2021/05/10 08:52:04;;;;;;;3.00;1.05;;;22.10;45.00;;;;;;5010141;28;20043;-77
2021/05/10 08:54:31;;;;;;;3.70;1.05;;;22.40;45.50;;;;;;5015898;28;20098;-77
2021/05/10 08:56:58;;;;;;;1.17;1.17;;;22.60;44.30;;;;;;5014781;28;22792;-77
2021/05/10 08:59:24;;;;;;;2.55;1.00;;;22.70;42.70;;;;;;5000558;28;20029;-78
2021/05/10 09:01:52;;;;;;;1.75;1.33;;;22.90;42.90;;;;;;5001752;28;20061;-77
2021/05/10 09:04:33;;;;;;;3.05;1.00;;;23.10;43.50;;;;;;4998279;28;20613;-76
2021/05/10 09:07:12;;;;;;;2.25;1.10;;;23.00;43.10;;;;;;5007192;28;20025;-77
2021/05/10 09:10:01;;;;;;;7.47;1.30;;;23.00;41.30;;;;;;5013775;28;20360;-77
2021/05/10 09:12:45;;;;;;;1.80;1.10;;;23.30;42.40;;;;;;5008128;28;20099;-76
2021/05/10 09:15:21;;;;;;;2.42;1.25;;;23.40;44.80;;;;;;5006449;28;20057;-76
2021/05/10 09:17:49;;;;;;;1.65;1.20;;;23.50;44.40;;;;;;5009334;28;20033;-76
2021/05/10 09:20:20;;;;;;;1.25;1.15;;;23.60;46.70;;;;;;5000494;28;20052;-76
2021/05/10 09:22:52;;;;;;;2.42;1.10;;;23.80;45.30;;;;;;5002431;28;20118;-76
2021/05/10 09:25:18;;;;;;;1.85;1.23;;;23.90;46.50;;;;;;5010642;28;20088;-76
2021/05/10 09:27:44;;;;;;;4.00;2.65;;;23.80;48.70;;;;;;4998951;28;20044;-76
2021/05/10 09:30:19;;;;;;;2.70;1.30;;;23.90;47.60;;;;;;5004401;28;20038;-76
2021/05/10 09:32:55;;;;;;;2.50;1.30;;;24.10;45.80;;;;;;5011039;28;20128;-76
2021/05/10 09:35:24;;;;;;;2.53;1.10;;;24.30;42.10;;;;;;5010756;28;20022;-74
2021/05/10 09:38:08;;;;;;;1.60;1.50;;;24.40;44.10;;;;;;5003812;28;20134;-77
2021/05/10 09:41:03;;;;;;;1.63;1.30;;;24.40;44.90;;;;;;5006324;28;20095;-77
2021/05/10 09:43:33;;;;;;;3.03;1.20;;;24.20;43.10;;;;;;5015339;28;20046;-77
2021/05/10 09:46:04;;;;;;;2.90;1.38;;;24.30;41.80;;;;;;5001103;28;20025;-77
2021/05/10 09:48:35;;;;;;;1.55;1.15;;;24.30;41.80;;;;;;5014094;28;20138;-78
2021/05/10 09:51:04;;;;;;;2.15;1.40;;;24.30;38.10;;;;;;5008974;28;20037;-77
2021/05/10 09:53:44;;;;;;;2.30;1.20;;;24.40;42.10;;;;;;5004339;28;20392;-76
2021/05/10 09:58:56;;;;;;;1.58;1.33;;;24.50;48.50;;;;;;5005118;28;20052;-77
2021/05/10 10:01:22;;;;;;;1.85;1.20;;;24.50;44.60;;;;;;5017433;28;20232;-76
2021/05/10 10:03:51;;;;;;;2.17;1.10;;;24.70;42.30;;;;;;5012436;28;20048;-77
2021/05/10 10:06:18;;;;;;;3.78;1.40;;;24.80;41.50;;;;;;5001744;28;20021;-77
2021/05/10 10:08:47;;;;;;;1.50;1.35;;;24.90;41.30;;;;;;5008443;28;20052;-77
2021/05/10 10:11:21;;;;;;;1.95;1.20;;;25.10;40.20;;;;;;5007102;28;20033;-76
2021/05/10 10:13:47;;;;;;;1.60;1.30;;;25.00;38.10;;;;;;5007538;28;20037;-77
2021/05/10 10:16:15;;;;;;;2.13;1.10;;;24.90;39.00;;;;;;5012210;28;20052;-77
2021/05/10 10:18:42;;;;;;;1.30;1.20;;;24.60;42.50;;;;;;5006607;28;20045;-76
2021/05/10 10:21:10;;;;;;;2.33;1.00;;;24.50;42.20;;;;;;5016441;28;20040;-76
2021/05/10 10:23:36;;;;;;;;;;;24.60;41.60;;;;;;5017078;28;20272;-77
2021/05/10 10:26:05;;;;;;;1.33;1.20;;;24.90;37.60;;;;;;5004773;28;19924;-77
2021/05/10 10:28:33;;;;;;;1.65;1.20;;;25.10;41.40;;;;;;5013456;28;20073;-77
2021/05/10 10:31:06;;;;;;;;;;;25.20;41.50;;;;;;5019976;28;20125;-77
2021/05/10 10:33:41;;;;;;;1.65;1.05;;;25.30;39.50;;;;;;5014334;28;19913;-77
2021/05/10 10:36:17;;;;;;;1.73;1.13;;;25.30;37.90;;;;;;5011379;28;20032;-76
2021/05/10 10:38:43;;;;;;;1.40;1.10;;;25.40;39.20;;;;;;5000405;28;20139;-76
2021/05/10 10:41:19;;;;;;;1.50;1.38;;;25.50;38.30;;;;;;5009117;28;20041;-76
2021/05/10 10:43:46;;;;;;;0.95;0.95;;;25.60;36.20;;;;;;5015410;28;20030;-77
2021/05/10 10:46:19;;;;;;;3.03;1.23;;;25.70;38.40;;;;;;5021174;28;20385;-76
2021/05/10 10:48:46;;;;;;;1.35;1.25;;;25.70;37.40;;;;;;5017491;28;20037;-76
2021/05/10 10:51:14;;;;;;;2.75;1.30;;;25.80;35.70;;;;;;5018982;28;20026;-76
2021/05/10 10:53:42;;;;;;;3.78;1.27;;;25.90;37.40;;;;;;5015785;28;20397;-76
2021/05/10 10:56:08;;;;;;;2.17;1.17;;;25.80;35.00;;;;;;5009954;28;20033;-76
2021/05/10 10:58:33;;;;;;;1.52;1.20;;;25.80;37.70;;;;;;5013193;28;20031;-77
2021/05/10 11:01:07;;;;;;;2.55;1.52;;;26.00;37.70;;;;;;5007594;28;20068;-76
2021/05/10 11:03:34;;;;;;;3.45;1.55;;;26.10;35.40;;;;;;5019877;28;20025;-76
2021/05/10 11:06:01;;;;;;;1.90;1.30;;;26.10;35.10;;;;;;5011580;28;20033;-77
2021/05/10 11:08:47;;;;;;;3.33;1.33;;;26.10;35.50;;;;;;5003786;28;20386;-76
2021/05/10 11:11:34;;;;;;;1.67;1.17;;;26.00;37.10;;;;;;5016446;28;20377;-76
2021/05/10 11:14:01;;;;;;;2.25;1.10;;;25.90;35.60;;;;;;5003240;28;20048;-76
2021/05/10 11:16:46;;;;;;;2.20;1.27;;;25.90;34.40;;;;;;5012344;28;20785;-77
2021/05/10 11:19:27;;;;;;;2.33;1.30;;;25.90;33.60;;;;;;5008604;28;20052;-77
2021/05/10 11:21:53;;;;;;;1.98;1.30;;;25.90;38.40;;;;;;5011621;28;20084;-77
2021/05/10 11:24:27;;;;;;;1.75;1.20;;;25.90;38.20;;;;;;5006476;28;20037;-76
2021/05/10 11:26:55;;;;;;;1.63;1.27;;;25.90;38.50;;;;;;5014787;28;20036;-77
2021/05/10 11:29:24;;;;;;;1.25;1.15;;;25.90;37.00;;;;;;5002207;28;20081;-77
2021/05/10 11:31:51;;;;;;;1.38;1.17;;;25.90;34.30;;;;;;5010215;28;20038;-78
2021/05/10 11:34:33;;;;;;;1.75;1.20;;;25.90;39.20;;;;;;5011049;28;20061;-77
2021/05/10 11:37:00;;;;;;;2.92;1.27;;;26.00;39.50;;;;;;5000169;28;20029;-77
2021/05/10 11:39:31;;;;;;;2.97;1.17;;;25.90;38.30;;;;;;5021782;28;20040;-76
2021/05/10 11:42:02;;;;;;;1.15;1.00;;;25.90;37.50;;;;;;5020154;28;20025;-77
2021/05/10 11:44:30;;;;;;;2.17;1.40;;;25.90;40.80;;;;;;5022742;28;20082;-78
2021/05/10 11:46:56;;;;;;;;;;;25.90;39.80;;;;;;5024377;28;20550;-77
2021/05/10 11:49:36;;;;;;;1.52;1.20;;;25.80;35.90;;;;;;5007883;28;19917;-77
2021/05/10 11:52:07;;;;;;;2.58;1.20;;;25.80;37.40;;;;;;5014263;28;20025;-76
2021/05/10 11:54:33;;;;;;;1.17;1.10;;;25.80;35.80;;;;;;5010684;28;20029;-77
2021/05/10 11:57:02;;;;;;;1.50;1.40;;;25.80;41.80;;;;;;5005265;28;20610;-76
2021/05/10 12:02:00;;;;;;;2.17;1.30;;;25.90;39.00;;;;;;5009326;28;20574;-76
2021/05/10 12:04:30;;;;;;;1.38;1.10;;;25.90;41.00;;;;;;5007600;28;20037;-76
2021/05/10 12:06:56;;;;;;;6.05;1.85;;;26.00;37.20;;;;;;5007009;28;20022;-76
2021/05/10 12:09:32;;;;;;;2.47;1.15;;;26.10;35.50;;;;;;5014944;28;20076;-75
2021/05/10 12:12:00;;;;;;;2.22;1.30;;;26.10;36.40;;;;;;5018222;28;20033;-75
2021/05/10 12:14:26;;;;;;;1.27;1.17;;;26.10;35.60;;;;;;5012182;28;20013;-76
2021/05/10 12:17:09;;;;;;;2.20;1.40;;;26.10;37.60;;;;;;5000694;28;20061;-76
2021/05/10 12:19:55;;;;;;;1.55;1.20;;;26.10;39.40;;;;;;5014100;28;20060;-76
2021/05/10 12:22:27;;;;;;;2.05;1.15;;;26.20;37.20;;;;;;5002049;28;20687;-76
2021/05/10 12:24:56;;;;;;;1.67;1.30;;;26.20;39.40;;;;;;5008814;28;20029;-77
2021/05/10 12:27:23;;;;;;;3.47;1.30;;;26.30;39.50;;;;;;5011157;28;20040;-75
2021/05/10 12:29:49;;;;;;;2.65;1.10;;;26.30;37.30;;;;;;5015393;28;20038;-76
2021/05/10 12:32:15;;;;;;;2.53;1.30;;;26.30;33.30;;;;;;5017375;28;20037;-76
2021/05/10 12:34:41;;;;;;;1.30;1.20;;;26.30;34.50;;;;;;5009937;28;20488;-77
2021/05/10 12:37:07;;;;;;;3.53;1.77;;;26.30;37.00;;;;;;5018923;28;20490;-77
2021/05/10 12:39:33;;;;;;;1.27;1.17;;;26.20;36.80;;;;;;5009732;28;20022;-77
2021/05/10 12:42:19;;;;;;;2.28;0.98;;;26.30;35.80;;;;;;5006637;28;20504;-76
2021/05/10 12:45:11;;;;;;;3.20;1.17;;;26.30;35.30;;;;;;5015196;28;20079;-77
2021/05/10 12:47:47;;;;;;;1.20;1.10;;;26.40;34.20;;;;;;5014190;28;20164;-76
2021/05/10 12:50:32;;;;;;;2.50;1.23;;;26.40;39.70;;;;;;5010040;28;20036;-77
2021/05/10 12:53:01;;;;;;;3.00;1.17;;;26.30;37.70;;;;;;5009509;28;20044;-77
2021/05/10 12:55:28;;;;;;;1.25;1.00;;;26.40;34.40;;;;;;5009156;28;20235;-76
2021/05/10 12:57:54;;;;;;;1.83;1.10;;;26.30;35.10;;;;;;5009336;28;20024;-76
2021/05/10 13:00:30;;;;;;;1.23;1.08;;;26.30;35.30;;;;;;5007578;28;20022;-77